createdAt,value
2018-04-19T00:00:57.801Z,14.90
2018-04-19T00:03:31.440Z,14.83
2018-04-19T00:06:04.002Z,14.78
2018-04-19T00:08:36.491Z,14.77
2018-04-19T00:11:09.079Z,14.76
2018-04-19T00:13:41.564Z,14.72
2018-04-19T00:16:14.080Z,14.71
2018-04-19T00:18:46.574Z,14.71
2018-04-19T00:21:19.095Z,14.71
2018-04-19T00:23:51.600Z,14.68
2018-04-19T00:26:24.115Z,14.66
2018-04-19T00:28:56.607Z,14.61
2018-04-19T00:31:29.115Z,14.56
2018-04-19T00:34:02.460Z,14.47
2018-04-19T00:36:34.968Z,14.43
2018-04-19T00:39:07.463Z,14.44
2018-04-19T00:41:39.988Z,14.43
2018-04-19T00:44:12.504Z,14.38
2018-04-19T00:46:45.034Z,14.34
2018-04-19T00:49:17.575Z,14.30
2018-04-19T00:51:50.585Z,14.25
2018-04-19T00:54:23.072Z,14.26
2018-04-19T00:56:55.631Z,14.23
2018-04-19T00:59:28.223Z,14.22
2018-04-19T01:02:00.735Z,14.22
2018-04-19T01:04:33.224Z,14.22
2018-04-19T01:07:05.735Z,14.21
2018-04-19T01:09:38.223Z,14.20
2018-04-19T01:12:10.751Z,14.18
2018-04-19T01:14:43.343Z,14.14
2018-04-19T01:17:15.870Z,14.11
2018-04-19T01:19:48.411Z,14.08
2018-04-19T01:22:20.923Z,13.97
2018-04-19T01:24:53.417Z,14.00
2018-04-19T01:27:25.939Z,13.97
2018-04-19T01:29:58.546Z,13.94
2018-04-19T01:32:31.956Z,13.90
2018-04-19T01:35:04.467Z,13.86
2018-04-19T01:37:36.963Z,13.84
2018-04-19T01:40:09.512Z,13.81
2018-04-19T01:42:42.000Z,13.80
2018-04-19T01:45:14.584Z,13.84
2018-04-19T01:47:47.143Z,13.82
2018-04-19T01:50:19.661Z,13.81
2018-04-19T01:52:52.154Z,13.80
2018-04-19T01:55:24.667Z,13.81
2018-04-19T01:57:57.152Z,13.75
2018-04-19T02:00:29.808Z,13.73
2018-04-19T02:03:02.295Z,13.75
2018-04-19T02:05:34.859Z,13.76
2018-04-19T02:08:07.344Z,13.72
2018-04-19T02:10:39.850Z,13.68
2018-04-19T02:13:12.404Z,13.67
2018-04-19T02:15:44.915Z,13.67
2018-04-19T02:18:17.425Z,13.61
2018-04-19T02:20:49.926Z,13.56
2018-04-19T02:23:22.462Z,13.52
2018-04-19T02:25:54.974Z,13.48
2018-04-19T02:28:27.468Z,13.45
2018-04-19T02:31:00.466Z,13.43
2018-04-19T02:33:32.963Z,13.40
2018-04-19T02:36:05.477Z,13.38
2018-04-19T02:38:37.982Z,13.40
2018-04-19T02:41:10.499Z,13.36
2018-04-19T02:43:43.052Z,13.35
2018-04-19T02:46:15.564Z,13.36
2018-04-19T02:48:48.052Z,13.34
2018-04-19T02:51:20.599Z,13.27
2018-04-19T02:53:53.092Z,13.23
2018-04-19T02:56:25.616Z,13.21
2018-04-19T02:58:58.104Z,13.20
2018-04-19T03:01:31.090Z,13.20
2018-04-19T03:04:03.598Z,13.16
2018-04-19T03:06:36.115Z,13.11
2018-04-19T03:09:08.605Z,13.08
2018-04-19T03:11:41.189Z,13.04
2018-04-19T03:14:13.687Z,13.03
2018-04-19T03:16:46.194Z,13.01
2018-04-19T03:19:18.715Z,13.00
2018-04-19T03:21:51.240Z,12.95
2018-04-19T03:24:23.726Z,12.91
2018-04-19T03:26:57.118Z,12.88
2018-04-19T03:29:29.848Z,12.86
2018-04-19T03:32:02.371Z,12.88
2018-04-19T03:34:34.863Z,12.87
2018-04-19T03:37:07.459Z,12.87
2018-04-19T03:39:40.046Z,12.87
2018-04-19T03:42:12.677Z,12.84
2018-04-19T03:44:45.231Z,12.85
2018-04-19T03:47:17.755Z,12.80
2018-04-19T03:49:50.241Z,12.76
2018-04-19T03:52:22.760Z,12.74
2018-04-19T03:54:55.251Z,12.75
2018-04-19T03:57:27.847Z,12.77
2018-04-19T04:00:01.033Z,12.75
2018-04-19T04:02:33.634Z,12.76
2018-04-19T04:05:06.121Z,12.74
2018-04-19T04:07:38.710Z,12.75
2018-04-19T04:10:11.300Z,12.75
2018-04-19T04:12:43.810Z,12.75
2018-04-19T04:15:16.309Z,12.76
2018-04-19T04:18:01.083Z,12.76
2018-04-19T04:20:45.700Z,12.73
2018-04-19T04:23:30.988Z,12.73
2018-04-19T04:26:03.478Z,12.73
2018-04-19T04:28:35.987Z,12.71
2018-04-19T04:31:08.540Z,12.74
2018-04-19T04:33:41.034Z,12.80
2018-04-19T04:36:13.533Z,12.84
2018-04-19T04:38:46.039Z,12.89
2018-04-19T04:41:18.595Z,12.92
2018-04-19T04:43:51.142Z,12.93
2018-04-19T04:46:23.644Z,12.93
2018-04-19T04:48:56.247Z,12.96
2018-04-19T04:51:28.748Z,13.05
2018-04-19T04:54:02.082Z,13.13
2018-04-19T04:56:34.565Z,13.21
2018-04-19T04:59:07.076Z,13.29
2018-04-19T05:01:39.564Z,13.40
2018-04-19T05:04:12.179Z,13.55
2018-04-19T05:06:44.667Z,13.73
2018-04-19T05:09:17.172Z,14.00
2018-04-19T05:11:49.683Z,14.28
2018-04-19T05:14:22.217Z,14.66
2018-04-19T05:16:54.710Z,15.24
2018-04-19T05:19:27.223Z,16.28
2018-04-19T05:21:59.832Z,17.29
2018-04-19T05:24:32.344Z,18.70
2018-04-19T05:27:04.839Z,20.09
2018-04-19T05:29:37.354Z,21.26
2018-04-19T05:32:09.857Z,22.43
2018-04-19T05:34:42.375Z,23.34
2018-04-19T05:37:14.874Z,24.06
2018-04-19T05:39:47.395Z,24.90
2018-04-19T05:42:19.892Z,25.95
2018-04-19T05:44:52.403Z,27.09
2018-04-19T05:47:25.003Z,27.89
2018-04-19T05:49:57.515Z,28.67
2018-04-19T05:52:30.587Z,29.20
2018-04-19T05:55:03.106Z,29.34
2018-04-19T05:57:35.602Z,28.74
2018-04-19T06:00:08.128Z,27.64
2018-04-19T06:02:40.632Z,26.31
2018-04-19T06:05:13.147Z,25.10
2018-04-19T06:07:45.640Z,24.37
2018-04-19T06:10:18.157Z,23.97
2018-04-19T06:12:50.685Z,23.77
2018-04-19T06:15:23.206Z,23.51
2018-04-19T06:17:55.704Z,23.38
2018-04-19T06:20:28.223Z,23.96
2018-04-19T06:23:00.767Z,24.46
2018-04-19T06:25:33.283Z,25.23
2018-04-19T06:28:05.889Z,25.91
2018-04-19T06:30:38.473Z,25.91
2018-04-19T06:33:10.982Z,25.67
2018-04-19T06:35:43.534Z,24.98
2018-04-19T06:38:16.027Z,24.45
2018-04-19T06:40:48.609Z,23.83
2018-04-19T06:43:21.188Z,23.35
2018-04-19T06:45:53.778Z,23.02
2018-04-19T06:48:26.280Z,22.86
2018-04-19T06:50:58.851Z,22.69
2018-04-19T06:53:31.927Z,22.59
2018-04-19T06:56:04.455Z,22.43
2018-04-19T06:58:36.959Z,22.37
2018-04-19T07:01:09.490Z,22.26
2018-04-19T07:03:42.083Z,22.22
2018-04-19T07:06:14.671Z,22.15
2018-04-19T07:08:47.259Z,22.17
2018-04-19T07:11:19.781Z,22.23
2018-04-19T07:13:52.331Z,22.24
2018-04-19T07:16:24.852Z,22.24
2018-04-19T07:18:57.400Z,22.51
2018-04-19T07:21:30.715Z,22.51
2018-04-19T07:24:03.210Z,22.57
2018-04-19T07:26:35.727Z,22.56
2018-04-19T07:29:08.258Z,22.68
2018-04-19T07:31:40.791Z,22.60
2018-04-19T07:34:13.322Z,22.69
2018-04-19T07:36:45.823Z,22.69
2018-04-19T07:39:18.392Z,23.00
2018-04-19T07:41:51.488Z,23.33
2018-04-19T07:44:24.019Z,23.54
2018-04-19T07:46:56.555Z,23.68
2018-04-19T07:49:29.144Z,23.77
2018-04-19T07:52:02.366Z,23.86
2018-04-19T07:54:34.902Z,24.10
2018-04-19T07:57:07.422Z,23.82
2018-04-19T07:59:40.000Z,23.76
2018-04-19T08:02:12.513Z,24.13
2018-04-19T08:04:45.033Z,24.39
2018-04-19T08:07:17.555Z,24.62
2018-04-19T08:09:50.077Z,25.13
2018-04-19T08:12:22.611Z,25.26
2018-04-19T08:14:55.132Z,24.85
2018-04-19T08:17:27.628Z,24.91
2018-04-19T08:20:00.776Z,24.55
2018-04-19T08:22:33.375Z,24.83
2018-04-19T08:25:05.968Z,25.06
2018-04-19T08:27:38.496Z,25.02
2018-04-19T08:30:11.016Z,24.81
2018-04-19T08:32:43.615Z,24.98
2018-04-19T08:35:16.143Z,25.45
2018-04-19T08:37:48.638Z,25.76
2018-04-19T08:40:21.176Z,25.87
2018-04-19T08:42:53.763Z,25.85
2018-04-19T08:45:26.347Z,26.03
2018-04-19T08:47:58.931Z,26.19
2018-04-19T08:50:32.327Z,25.28
2018-04-19T08:53:04.919Z,25.53
2018-04-19T08:55:37.443Z,25.69
2018-04-19T08:58:09.947Z,25.95
2018-04-19T09:00:42.464Z,25.99
2018-04-19T09:03:15.062Z,26.24
2018-04-19T09:05:47.585Z,26.11
2018-04-19T09:08:20.088Z,26.11
2018-04-19T09:10:52.605Z,26.03
2018-04-19T09:13:25.115Z,25.65
2018-04-19T09:15:57.637Z,26.16
2018-04-19T09:18:30.851Z,26.56
2018-04-19T09:21:03.392Z,26.83
2018-04-19T09:23:35.951Z,26.58
2018-04-19T09:26:08.542Z,26.71
2018-04-19T09:28:41.051Z,26.71
2018-04-19T09:31:13.583Z,26.82
2018-04-19T09:33:46.191Z,26.55
2018-04-19T09:36:18.720Z,26.89
2018-04-19T09:38:51.265Z,27.11
2018-04-19T09:41:23.795Z,27.08
2018-04-19T09:43:56.303Z,27.00
2018-04-19T09:46:28.827Z,27.01
2018-04-19T09:49:02.013Z,27.21
2018-04-19T09:51:34.534Z,27.08
2018-04-19T09:54:07.117Z,27.42
2018-04-19T09:56:39.582Z,27.49
2018-04-19T09:59:12.868Z,27.10
2018-04-19T10:01:51.491Z,27.22
2018-04-19T10:04:30.919Z,27.23
2018-04-19T10:07:03.458Z,27.34
2018-04-19T10:09:35.971Z,27.36
2018-04-19T10:12:08.501Z,27.43
2018-04-19T10:14:41.087Z,27.72
2018-04-19T10:17:13.669Z,27.88
2018-04-19T10:19:46.214Z,27.69
2018-04-19T10:22:18.843Z,27.64
2018-04-19T10:24:51.424Z,27.90
2018-04-19T10:27:24.079Z,28.12
2018-04-19T10:29:56.591Z,28.01
2018-04-19T10:32:29.123Z,27.78
2018-04-19T10:35:02.294Z,27.74
2018-04-19T10:37:34.793Z,27.80
2018-04-19T10:40:07.324Z,27.77
2018-04-19T10:42:39.937Z,28.17
2018-04-19T10:45:12.523Z,27.76
2018-04-19T10:47:45.023Z,27.92
2018-04-19T10:50:17.541Z,27.98
2018-04-19T10:52:50.039Z,27.95
2018-04-19T10:55:22.665Z,27.39
2018-04-19T10:57:55.170Z,27.92
2018-04-19T11:00:27.733Z,28.08
2018-04-19T11:03:00.639Z,28.42
2018-04-19T11:05:33.159Z,28.50
2018-04-19T11:08:05.658Z,28.25
2018-04-19T11:10:38.174Z,28.29
2018-04-19T11:13:10.758Z,28.31
2018-04-19T11:15:43.342Z,28.37
2018-04-19T11:18:15.884Z,28.37
2018-04-19T11:20:48.412Z,28.21
2018-04-19T11:23:21.003Z,28.53
2018-04-19T11:25:53.526Z,28.66
2018-04-19T11:28:26.073Z,28.77
2018-04-19T11:30:58.711Z,28.78
2018-04-19T11:33:31.803Z,28.86
2018-04-19T11:36:04.352Z,28.71
2018-04-19T11:38:36.938Z,29.22
2018-04-19T11:41:09.467Z,28.97
2018-04-19T11:43:42.007Z,28.67
2018-04-19T11:46:14.588Z,28.65
2018-04-19T11:48:47.106Z,28.64
2018-04-19T11:51:19.624Z,28.74
2018-04-19T11:53:52.147Z,28.60
2018-04-19T11:56:24.741Z,28.67
2018-04-19T11:58:57.320Z,28.42
2018-04-19T12:01:29.928Z,28.59
2018-04-19T12:04:02.431Z,28.56
2018-04-19T12:06:34.956Z,28.84
2018-04-19T12:09:07.449Z,28.99
2018-04-19T12:11:39.971Z,28.10
2018-04-19T12:14:12.537Z,28.79
2018-04-19T12:16:45.053Z,28.74
2018-04-19T12:19:17.644Z,29.10
2018-04-19T12:21:50.188Z,28.59
2018-04-19T12:24:22.771Z,29.19
2018-04-19T12:26:55.280Z,29.50
2018-04-19T12:29:27.771Z,29.49
2018-04-19T12:32:00.657Z,29.53
2018-04-19T12:34:33.151Z,29.66
2018-04-19T12:37:05.663Z,30.00
2018-04-19T12:39:38.201Z,31.36
2018-04-19T12:42:10.714Z,31.17
2018-04-19T12:44:43.212Z,30.90
2018-04-19T12:47:15.719Z,32.87
2018-04-19T12:49:48.211Z,33.61
2018-04-19T12:52:20.725Z,33.20
2018-04-19T12:54:53.224Z,33.06
2018-04-19T12:57:25.752Z,33.26
2018-04-19T12:59:58.266Z,32.98
2018-04-19T13:02:30.863Z,32.05
2018-04-19T13:05:03.360Z,32.50
2018-04-19T13:07:35.880Z,31.91
2018-04-19T13:10:08.414Z,32.15
2018-04-19T13:12:40.997Z,31.17
2018-04-19T13:15:13.518Z,32.27
2018-04-19T13:17:46.027Z,32.40
2018-04-19T13:20:18.515Z,32.00
2018-04-19T13:22:51.031Z,32.90
2018-04-19T13:25:23.539Z,33.70
2018-04-19T13:27:56.056Z,33.64
2018-04-19T13:30:28.598Z,34.78
2018-04-19T13:33:01.920Z,36.28
2018-04-19T13:35:34.425Z,36.06
2018-04-19T13:38:06.982Z,37.12
2018-04-19T13:40:39.481Z,37.31
2018-04-19T13:43:11.994Z,36.98
2018-04-19T13:45:44.496Z,35.14
2018-04-19T13:48:17.024Z,33.39
2018-04-19T13:50:49.579Z,32.98
2018-04-19T13:53:22.088Z,33.09
2018-04-19T13:55:54.603Z,32.30
2018-04-19T13:58:27.115Z,32.49
2018-04-19T14:00:59.786Z,32.97
2018-04-19T14:03:32.307Z,33.42
2018-04-19T14:06:04.833Z,32.28
2018-04-19T14:08:37.391Z,31.89
2018-04-19T14:11:09.897Z,30.89
2018-04-19T14:13:42.477Z,30.57
2018-04-19T14:16:14.996Z,30.76
2018-04-19T14:18:47.533Z,30.46
2018-04-19T14:21:20.062Z,29.90
2018-04-19T14:23:52.600Z,30.02
2018-04-19T14:26:25.124Z,29.64
2018-04-19T14:28:57.625Z,29.72
2018-04-19T14:31:30.800Z,29.62
2018-04-19T14:34:03.291Z,29.22
2018-04-19T14:36:35.802Z,29.53
2018-04-19T14:39:08.296Z,29.66
2018-04-19T14:41:40.801Z,29.18
2018-04-19T14:44:13.306Z,29.41
2018-04-19T14:46:45.875Z,29.68
2018-04-19T14:49:18.409Z,29.46
2018-04-19T14:51:50.909Z,29.15
2018-04-19T14:54:23.400Z,29.01
2018-04-19T14:56:55.923Z,28.55
2018-04-19T14:59:28.423Z,28.89
2018-04-19T15:02:00.932Z,29.25
2018-04-19T15:04:33.435Z,28.85
2018-04-19T15:07:06.063Z,29.07
2018-04-19T15:09:38.561Z,28.80
2018-04-19T15:12:11.119Z,28.54
2018-04-19T15:14:43.607Z,28.53
2018-04-19T15:17:16.146Z,28.50
2018-04-19T15:19:48.638Z,28.75
2018-04-19T15:22:21.158Z,28.75
2018-04-19T15:24:53.738Z,28.85
2018-04-19T15:27:26.263Z,28.38
2018-04-19T15:29:58.807Z,28.30
2018-04-19T15:32:32.214Z,28.39
2018-04-19T15:35:04.765Z,28.27
2018-04-19T15:37:37.284Z,28.15
2018-04-19T15:40:09.787Z,28.25
2018-04-19T15:42:42.307Z,28.13
2018-04-19T15:45:14.841Z,27.91
2018-04-19T15:47:47.375Z,27.98
2018-04-19T15:50:19.908Z,27.97
2018-04-19T15:52:52.517Z,28.15
2018-04-19T15:55:25.087Z,28.09
2018-04-19T15:57:57.611Z,28.15
2018-04-19T16:00:30.760Z,28.29
2018-04-19T16:03:03.279Z,27.89
2018-04-19T16:05:35.772Z,28.09
2018-04-19T16:08:08.331Z,27.64
2018-04-19T16:10:40.830Z,27.88
2018-04-19T16:13:13.345Z,27.96
2018-04-19T16:15:45.857Z,28.16
2018-04-19T16:18:18.376Z,28.06
2018-04-19T16:20:50.879Z,28.20
2018-04-19T16:23:23.471Z,27.93
2018-04-19T16:25:55.962Z,28.31
2018-04-19T16:28:28.481Z,28.38
2018-04-19T16:31:01.911Z,28.26
2018-04-19T16:33:34.555Z,28.08
2018-04-19T16:36:07.015Z,27.98
2018-04-19T16:38:39.591Z,27.72
2018-04-19T16:41:12.136Z,27.69
2018-04-19T16:43:44.647Z,27.66
2018-04-19T16:46:17.139Z,27.77
2018-04-19T16:48:49.659Z,27.69
2018-04-19T16:51:22.279Z,27.61
2018-04-19T16:53:54.871Z,27.88
2018-04-19T16:56:27.439Z,27.88
2018-04-19T16:59:00.538Z,27.62
2018-04-19T17:01:33.039Z,27.97
2018-04-19T17:04:05.557Z,27.96
2018-04-19T17:06:38.058Z,27.88
2018-04-19T17:09:10.616Z,28.00
2018-04-19T17:11:43.284Z,27.27
2018-04-19T17:14:15.807Z,27.39
2018-04-19T17:16:48.299Z,27.64
2018-04-19T17:19:20.856Z,27.88
2018-04-19T17:21:53.416Z,27.32
2018-04-19T17:24:25.900Z,27.02
2018-04-19T17:26:58.484Z,26.95
2018-04-19T17:29:31.899Z,26.96
2018-04-19T17:32:04.482Z,26.70
2018-04-19T17:34:37.183Z,26.51
2018-04-19T17:37:09.840Z,26.14
2018-04-19T17:39:42.544Z,26.08
2018-04-19T17:42:15.126Z,25.93
2018-04-19T17:44:47.616Z,25.80
2018-04-19T17:47:20.166Z,25.64
2018-04-19T17:49:52.689Z,25.24
2018-04-19T17:52:25.210Z,25.20
2018-04-19T17:54:57.727Z,25.20
2018-04-19T17:57:30.967Z,25.17
2018-04-19T18:00:03.479Z,25.04
2018-04-19T18:02:36.331Z,24.84
2018-04-19T18:05:08.904Z,24.68
2018-04-19T18:07:41.510Z,24.45
2018-04-19T18:10:14.053Z,24.28
2018-04-19T18:12:46.577Z,24.20
2018-04-19T18:15:19.243Z,24.00
2018-04-19T18:17:51.764Z,23.87
2018-04-19T18:20:24.260Z,23.72
2018-04-19T18:22:56.784Z,23.57
2018-04-19T18:25:29.303Z,23.45
2018-04-19T18:28:02.086Z,23.33
2018-04-19T18:30:34.739Z,23.22
2018-04-19T18:33:07.251Z,23.14
2018-04-19T18:35:39.749Z,23.02
2018-04-19T18:38:12.272Z,22.93
2018-04-19T18:40:44.767Z,22.86
2018-04-19T18:43:17.295Z,22.75
2018-04-19T18:45:49.788Z,22.73
2018-04-19T18:48:22.362Z,22.69
2018-04-19T18:50:54.950Z,22.51
2018-04-19T18:53:27.554Z,22.56
2018-04-19T18:56:00.684Z,22.38
2018-04-19T18:58:33.214Z,22.30
2018-04-19T19:01:05.706Z,22.20
2018-04-19T19:03:38.240Z,22.15
2018-04-19T19:06:10.890Z,22.07
2018-04-19T19:08:43.518Z,21.97
2018-04-19T19:11:16.162Z,21.89
2018-04-19T19:13:48.721Z,21.81
2018-04-19T19:16:21.323Z,21.71
2018-04-19T19:19:05.883Z,21.64
2018-04-19T19:21:38.381Z,21.56
2018-04-19T19:24:10.916Z,21.42
2018-04-19T19:26:43.552Z,21.28
2018-04-19T19:29:16.069Z,21.18
2018-04-19T19:31:48.559Z,21.06
2018-04-19T19:34:21.109Z,21.56
2018-04-19T19:36:53.679Z,21.57
2018-04-19T19:39:26.383Z,21.53
2018-04-19T19:41:58.875Z,21.45
2018-04-19T19:44:32.143Z,21.39
2018-04-19T19:47:04.758Z,21.32
2018-04-19T19:49:37.435Z,21.23
2018-04-19T19:52:10.024Z,21.17
2018-04-19T19:54:42.731Z,21.08
2018-04-19T19:57:15.254Z,20.97
2018-04-19T19:59:47.766Z,20.85
2018-04-19T20:02:20.372Z,20.76
2018-04-19T20:04:52.912Z,20.67
2018-04-19T20:07:25.415Z,20.59
2018-04-19T20:09:57.937Z,20.42
2018-04-19T20:12:31.566Z,20.32
2018-04-19T20:15:04.090Z,20.27
2018-04-19T20:17:36.603Z,20.23
2018-04-19T20:20:09.120Z,20.14
2018-04-19T20:22:41.629Z,20.09
2018-04-19T20:25:14.159Z,20.04
2018-04-19T20:27:46.650Z,20.00
2018-04-19T20:30:19.175Z,19.96
2018-04-19T20:32:51.729Z,19.94
2018-04-19T20:35:24.260Z,19.87
2018-04-19T20:37:56.790Z,19.83
2018-04-19T20:40:29.356Z,19.78
2018-04-19T20:43:02.195Z,19.72
2018-04-19T20:45:34.720Z,19.65
2018-04-19T20:48:07.216Z,19.58
2018-04-19T20:50:39.726Z,19.50
2018-04-19T20:53:12.312Z,19.46
2018-04-19T20:55:44.823Z,19.37
2018-04-19T20:58:17.380Z,19.31
2018-04-19T21:00:49.966Z,19.26
2018-04-19T21:03:22.546Z,19.23
2018-04-19T21:05:55.060Z,19.15
2018-04-19T21:08:27.624Z,19.12
2018-04-19T21:11:00.291Z,19.07
2018-04-19T21:13:32.806Z,19.04
2018-04-19T21:16:05.327Z,18.96
2018-04-19T21:18:37.859Z,18.89
2018-04-19T21:21:10.446Z,18.82
2018-04-19T21:23:42.968Z,18.78
2018-04-19T21:26:15.463Z,18.75
2018-04-19T21:28:47.979Z,18.69
2018-04-19T21:31:20.492Z,18.64
2018-04-19T21:33:53.021Z,18.56
2018-04-19T21:36:25.515Z,18.52
2018-04-19T21:38:58.029Z,18.47
2018-04-19T21:41:30.857Z,18.45
2018-04-19T21:44:03.403Z,18.43
2018-04-19T21:46:35.899Z,18.42
2018-04-19T21:49:08.467Z,18.42
2018-04-19T21:51:40.984Z,18.37
2018-04-19T21:54:13.551Z,18.33
2018-04-19T21:56:46.051Z,18.30
2018-04-19T21:59:18.621Z,18.22
2018-04-19T22:01:51.498Z,18.18
2018-04-19T22:04:24.012Z,18.09
2018-04-19T22:06:56.520Z,18.04
2018-04-19T22:09:29.062Z,18.01
2018-04-19T22:12:02.488Z,17.97
2018-04-19T22:14:35.055Z,18.03
2018-04-19T22:17:07.555Z,17.99
2018-04-19T22:19:40.079Z,17.88
2018-04-19T22:22:12.584Z,17.83
2018-04-19T22:24:45.090Z,17.80
2018-04-19T22:27:17.688Z,17.79
2018-04-19T22:29:50.282Z,17.76
2018-04-19T22:32:22.812Z,17.73
2018-04-19T22:34:55.332Z,17.64
2018-04-19T22:37:27.834Z,17.59
2018-04-19T22:40:01.524Z,17.52
2018-04-19T22:42:34.033Z,17.52
2018-04-19T22:45:06.627Z,17.49
2018-04-19T22:47:39.191Z,17.46
2018-04-19T22:50:11.775Z,17.42
2018-04-19T22:52:44.358Z,17.37
2018-04-19T22:55:16.872Z,17.34
2018-04-19T22:57:49.372Z,17.29
2018-04-19T23:00:22.651Z,17.24
2018-04-19T23:02:55.155Z,17.23
2018-04-19T23:05:27.681Z,17.15
2018-04-19T23:08:00.921Z,17.13
2018-04-19T23:10:33.490Z,17.08
2018-04-19T23:13:05.992Z,17.03
2018-04-19T23:15:38.520Z,16.97
2018-04-19T23:18:11.047Z,16.93
2018-04-19T23:20:43.575Z,16.85
2018-04-19T23:23:16.084Z,16.77
2018-04-19T23:25:48.597Z,16.77
2018-04-19T23:28:21.181Z,16.72
2018-04-19T23:30:53.755Z,16.70
2018-04-19T23:33:26.268Z,16.68
2018-04-19T23:35:58.791Z,16.64
2018-04-19T23:38:32.112Z,16.63
2018-04-19T23:41:04.632Z,16.62
2018-04-19T23:43:37.195Z,16.56
2018-04-19T23:46:09.778Z,16.57
2018-04-19T23:48:42.271Z,16.55
2018-04-19T23:51:14.793Z,16.53
2018-04-19T23:53:47.301Z,16.53
2018-04-19T23:56:19.987Z,16.48
2018-04-19T23:58:52.507Z,16.45
